sensor_id;sensor_type;location;lat;lon;timestamp;temperature;humidity
14577;DHT22;7375;46.072;14.470;2023-04-09T00:00:16;20.20;51.40
14577;DHT22;7375;46.072;14.470;2023-04-09T00:02:43;20.20;51.30
14577;DHT22;7375;46.072;14.470;2023-04-09T00:05:10;20.20;51.30
14577;DHT22;7375;46.072;14.470;2023-04-09T00:07:37;20.20;51.40
14577;DHT22;7375;46.072;14.470;2023-04-09T00:10:04;20.10;51.20
14577;DHT22;7375;46.072;14.470;2023-04-09T00:12:31;20.10;51.30
14577;DHT22;7375;46.072;14.470;2023-04-09T00:14:57;20.10;51.30
14577;DHT22;7375;46.072;14.470;2023-04-09T00:17:26;20.10;51.30
14577;DHT22;7375;46.072;14.470;2023-04-09T00:19:53;20.10;51.30
14577;DHT22;7375;46.072;14.470;2023-04-09T00:22:20;20.10;51.30
14577;DHT22;7375;46.072;14.470;2023-04-09T00:24:47;20.10;51.30
14577;DHT22;7375;46.072;14.470;2023-04-09T00:27:14;20.10;51.30
14577;DHT22;7375;46.072;14.470;2023-04-09T00:29:40;20.10;51.30
14577;DHT22;7375;46.072;14.470;2023-04-09T00:32:07;20.10;51.40
14577;DHT22;7375;46.072;14.470;2023-04-09T00:34:35;20.10;51.40
14577;DHT22;7375;46.072;14.470;2023-04-09T00:37:03;20.10;51.40
14577;DHT22;7375;46.072;14.470;2023-04-09T00:39:29;20.10;51.40
14577;DHT22;7375;46.072;14.470;2023-04-09T00:41:56;20.10;51.40
14577;DHT22;7375;46.072;14.470;2023-04-09T00:44:23;20.10;51.40
14577;DHT22;7375;46.072;14.470;2023-04-09T00:46:50;20.10;51.30
14577;DHT22;7375;46.072;14.470;2023-04-09T00:49:17;20.10;51.40
14577;DHT22;7375;46.072;14.470;2023-04-09T00:51:45;20.10;51.40
14577;DHT22;7375;46.072;14.470;2023-04-09T00:54:13;20.10;51.40
14577;DHT22;7375;46.072;14.470;2023-04-09T00:56:40;20.10;51.40
14577;DHT22;7375;46.072;14.470;2023-04-09T00:59:07;20.10;51.40
14577;DHT22;7375;46.072;14.470;2023-04-09T01:01:34;20.10;51.50
14577;DHT22;7375;46.072;14.470;2023-04-09T01:04:01;20.10;51.50
14577;DHT22;7375;46.072;14.470;2023-04-09T01:06:30;20.10;51.40
14577;DHT22;7375;46.072;14.470;2023-04-09T01:09:02;20.10;51.40
14577;DHT22;7375;46.072;14.470;2023-04-09T01:11:30;20.10;51.50
14577;DHT22;7375;46.072;14.470;2023-04-09T01:14:00;20.00;51.40
14577;DHT22;7375;46.072;14.470;2023-04-09T01:16:31;20.10;51.50
14577;DHT22;7375;46.072;14.470;2023-04-09T01:19:00;20.10;51.40
14577;DHT22;7375;46.072;14.470;2023-04-09T01:21:29;20.10;51.50
14577;DHT22;7375;46.072;14.470;2023-04-09T01:23:58;20.10;51.50
14577;DHT22;7375;46.072;14.470;2023-04-09T01:26:34;20.10;51.50
14577;DHT22;7375;46.072;14.470;2023-04-09T01:29:06;20.00;51.50
14577;DHT22;7375;46.072;14.470;2023-04-09T01:31:35;20.00;51.40
14577;DHT22;7375;46.072;14.470;2023-04-09T01:34:04;20.00;51.50
14577;DHT22;7375;46.072;14.470;2023-04-09T01:36:33;20.00;51.50
14577;DHT22;7375;46.072;14.470;2023-04-09T01:39:01;20.00;51.50
14577;DHT22;7375;46.072;14.470;2023-04-09T01:41:29;20.00;51.50
14577;DHT22;7375;46.072;14.470;2023-04-09T01:43:56;20.10;51.60
14577;DHT22;7375;46.072;14.470;2023-04-09T01:46:27;20.00;51.50
14577;DHT22;7375;46.072;14.470;2023-04-09T01:48:54;20.00;51.50
14577;DHT22;7375;46.072;14.470;2023-04-09T01:51:21;20.10;51.60
14577;DHT22;7375;46.072;14.470;2023-04-09T01:53:48;20.00;51.50
14577;DHT22;7375;46.072;14.470;2023-04-09T01:56:15;20.00;51.50
14577;DHT22;7375;46.072;14.470;2023-04-09T01:58:42;20.00;51.50
14577;DHT22;7375;46.072;14.470;2023-04-09T02:01:09;20.00;51.50
14577;DHT22;7375;46.072;14.470;2023-04-09T02:03:40;20.00;51.50
14577;DHT22;7375;46.072;14.470;2023-04-09T02:06:12;20.00;51.50
14577;DHT22;7375;46.072;14.470;2023-04-09T02:08:40;20.00;51.60
14577;DHT22;7375;46.072;14.470;2023-04-09T02:11:09;20.00;51.60
14577;DHT22;7375;46.072;14.470;2023-04-09T02:13:36;20.00;51.50
14577;DHT22;7375;46.072;14.470;2023-04-09T02:16:05;20.00;51.60
14577;DHT22;7375;46.072;14.470;2023-04-09T02:18:32;20.00;51.60
14577;DHT22;7375;46.072;14.470;2023-04-09T02:21:01;20.00;51.60
14577;DHT22;7375;46.072;14.470;2023-04-09T02:23:28;20.00;51.60
14577;DHT22;7375;46.072;14.470;2023-04-09T02:25:56;20.00;51.60
14577;DHT22;7375;46.072;14.470;2023-04-09T02:28:23;20.00;51.60
14577;DHT22;7375;46.072;14.470;2023-04-09T02:30:50;20.00;51.60
14577;DHT22;7375;46.072;14.470;2023-04-09T02:33:17;20.00;51.60
14577;DHT22;7375;46.072;14.470;2023-04-09T02:35:43;20.00;51.70
14577;DHT22;7375;46.072;14.470;2023-04-09T02:38:11;20.00;52.20
14577;DHT22;7375;46.072;14.470;2023-04-09T02:40:40;20.00;52.20
14577;DHT22;7375;46.072;14.470;2023-04-09T02:43:07;20.00;51.70
14577;DHT22;7375;46.072;14.470;2023-04-09T02:45:33;20.00;51.60
14577;DHT22;7375;46.072;14.470;2023-04-09T02:48:01;20.00;51.70
14577;DHT22;7375;46.072;14.470;2023-04-09T02:50:27;20.00;51.70
14577;DHT22;7375;46.072;14.470;2023-04-09T02:52:54;20.00;51.60
14577;DHT22;7375;46.072;14.470;2023-04-09T02:55:22;20.00;51.70
14577;DHT22;7375;46.072;14.470;2023-04-09T02:57:49;20.00;51.70
14577;DHT22;7375;46.072;14.470;2023-04-09T03:00:15;20.00;51.70
14577;DHT22;7375;46.072;14.470;2023-04-09T03:02:42;20.00;51.70
14577;DHT22;7375;46.072;14.470;2023-04-09T03:05:09;20.00;51.70
14577;DHT22;7375;46.072;14.470;2023-04-09T03:07:36;20.00;51.70
14577;DHT22;7375;46.072;14.470;2023-04-09T03:10:02;20.00;51.70
14577;DHT22;7375;46.072;14.470;2023-04-09T03:12:31;20.00;51.70
14577;DHT22;7375;46.072;14.470;2023-04-09T03:14:57;19.90;51.60
14577;DHT22;7375;46.072;14.470;2023-04-09T03:17:24;20.00;51.70
14577;DHT22;7375;46.072;14.470;2023-04-09T03:19:51;20.00;51.70
14577;DHT22;7375;46.072;14.470;2023-04-09T03:22:18;19.90;51.60
14577;DHT22;7375;46.072;14.470;2023-04-09T03:24:45;19.90;51.60
14577;DHT22;7375;46.072;14.470;2023-04-09T03:27:11;19.90;51.50
14577;DHT22;7375;46.072;14.470;2023-04-09T03:29:39;20.00;51.70
14577;DHT22;7375;46.072;14.470;2023-04-09T03:32:06;19.90;51.60
14577;DHT22;7375;46.072;14.470;2023-04-09T03:34:33;19.90;51.50
14577;DHT22;7375;46.072;14.470;2023-04-09T03:37:00;19.90;51.60
14577;DHT22;7375;46.072;14.470;2023-04-09T03:39:26;20.00;51.60
14577;DHT22;7375;46.072;14.470;2023-04-09T03:41:55;19.90;51.50
14577;DHT22;7375;46.072;14.470;2023-04-09T03:44:22;19.90;51.60
14577;DHT22;7375;46.072;14.470;2023-04-09T03:46:50;19.90;51.50
14577;DHT22;7375;46.072;14.470;2023-04-09T03:49:17;19.90;51.60
14577;DHT22;7375;46.072;14.470;2023-04-09T03:51:43;19.90;51.50
14577;DHT22;7375;46.072;14.470;2023-04-09T03:54:10;19.90;51.50
14577;DHT22;7375;46.072;14.470;2023-04-09T03:56:37;19.90;51.60
14577;DHT22;7375;46.072;14.470;2023-04-09T03:59:04;19.90;51.50
14577;DHT22;7375;46.072;14.470;2023-04-09T04:01:30;19.90;51.50
14577;DHT22;7375;46.072;14.470;2023-04-09T04:03:59;19.90;51.60
14577;DHT22;7375;46.072;14.470;2023-04-09T04:06:25;19.90;51.50
14577;DHT22;7375;46.072;14.470;2023-04-09T04:08:52;19.90;51.50
14577;DHT22;7375;46.072;14.470;2023-04-09T04:11:19;19.90;51.50
14577;DHT22;7375;46.072;14.470;2023-04-09T04:13:46;19.90;51.50
14577;DHT22;7375;46.072;14.470;2023-04-09T04:16:12;19.90;51.50
14577;DHT22;7375;46.072;14.470;2023-04-09T04:18:39;19.90;51.50
14577;DHT22;7375;46.072;14.470;2023-04-09T04:21:12;19.90;51.50
14577;DHT22;7375;46.072;14.470;2023-04-09T04:23:39;19.90;51.50
14577;DHT22;7375;46.072;14.470;2023-04-09T04:26:06;19.90;51.50
14577;DHT22;7375;46.072;14.470;2023-04-09T04:28:34;19.90;51.60
14577;DHT22;7375;46.072;14.470;2023-04-09T04:31:01;19.90;51.60
14577;DHT22;7375;46.072;14.470;2023-04-09T04:33:27;19.90;51.60
14577;DHT22;7375;46.072;14.470;2023-04-09T04:36:02;19.90;51.60
14577;DHT22;7375;46.072;14.470;2023-04-09T04:38:30;19.90;51.50
14577;DHT22;7375;46.072;14.470;2023-04-09T04:40:57;19.90;51.60
14577;DHT22;7375;46.072;14.470;2023-04-09T04:43:23;19.90;51.50
14577;DHT22;7375;46.072;14.470;2023-04-09T04:45:50;19.90;51.50
14577;DHT22;7375;46.072;14.470;2023-04-09T04:48:17;19.90;51.60
14577;DHT22;7375;46.072;14.470;2023-04-09T04:50:43;19.90;51.60
14577;DHT22;7375;46.072;14.470;2023-04-09T04:53:10;19.90;51.50
14577;DHT22;7375;46.072;14.470;2023-04-09T04:55:38;19.90;51.50
14577;DHT22;7375;46.072;14.470;2023-04-09T04:58:05;19.90;51.50
14577;DHT22;7375;46.072;14.470;2023-04-09T05:00:32;19.90;51.60
14577;DHT22;7375;46.072;14.470;2023-04-09T05:02:58;19.90;51.50
14577;DHT22;7375;46.072;14.470;2023-04-09T05:05:25;19.90;51.60
14577;DHT22;7375;46.072;14.470;2023-04-09T05:07:52;19.90;51.60
14577;DHT22;7375;46.072;14.470;2023-04-09T05:10:18;19.90;51.50
14577;DHT22;7375;46.072;14.470;2023-04-09T05:12:47;19.90;51.50
14577;DHT22;7375;46.072;14.470;2023-04-09T05:15:13;19.90;51.60
14577;DHT22;7375;46.072;14.470;2023-04-09T05:17:41;19.90;51.60
14577;DHT22;7375;46.072;14.470;2023-04-09T05:20:08;19.90;51.60
14577;DHT22;7375;46.072;14.470;2023-04-09T05:22:37;19.90;51.50
14577;DHT22;7375;46.072;14.470;2023-04-09T05:25:04;19.90;51.50
14577;DHT22;7375;46.072;14.470;2023-04-09T05:27:31;19.90;51.40
14577;DHT22;7375;46.072;14.470;2023-04-09T05:29:59;19.90;51.50
14577;DHT22;7375;46.072;14.470;2023-04-09T05:32:26;19.90;51.50
14577;DHT22;7375;46.072;14.470;2023-04-09T05:34:53;19.90;51.50
14577;DHT22;7375;46.072;14.470;2023-04-09T05:37:19;19.90;51.40
14577;DHT22;7375;46.072;14.470;2023-04-09T05:39:46;19.90;51.50
14577;DHT22;7375;46.072;14.470;2023-04-09T05:42:13;19.90;51.40
14577;DHT22;7375;46.072;14.470;2023-04-09T05:44:40;19.90;51.40
14577;DHT22;7375;46.072;14.470;2023-04-09T05:47:08;19.90;51.40
14577;DHT22;7375;46.072;14.470;2023-04-09T05:49:34;19.90;51.40
14577;DHT22;7375;46.072;14.470;2023-04-09T05:52:01;19.90;51.50
14577;DHT22;7375;46.072;14.470;2023-04-09T05:54:28;19.90;51.40
14577;DHT22;7375;46.072;14.470;2023-04-09T05:56:55;19.90;51.40
14577;DHT22;7375;46.072;14.470;2023-04-09T05:59:22;19.90;51.50
14577;DHT22;7375;46.072;14.470;2023-04-09T06:01:49;19.90;51.40
14577;DHT22;7375;46.072;14.470;2023-04-09T06:04:17;19.90;51.40
14577;DHT22;7375;46.072;14.470;2023-04-09T06:06:43;19.90;51.40
14577;DHT22;7375;46.072;14.470;2023-04-09T06:09:11;19.90;51.50
14577;DHT22;7375;46.072;14.470;2023-04-09T06:11:38;19.90;51.40
14577;DHT22;7375;46.072;14.470;2023-04-09T06:14:04;19.90;51.40
14577;DHT22;7375;46.072;14.470;2023-04-09T06:16:31;19.90;51.40
14577;DHT22;7375;46.072;14.470;2023-04-09T06:18:58;19.90;51.30
14577;DHT22;7375;46.072;14.470;2023-04-09T06:21:26;20.00;51.50
14577;DHT22;7375;46.072;14.470;2023-04-09T06:23:53;19.90;51.40
14577;DHT22;7375;46.072;14.470;2023-04-09T06:26:19;19.90;51.40
14577;DHT22;7375;46.072;14.470;2023-04-09T06:28:46;20.00;51.40
14577;DHT22;7375;46.072;14.470;2023-04-09T06:31:13;20.00;51.40
14577;DHT22;7375;46.072;14.470;2023-04-09T06:33:40;20.00;51.40
14577;DHT22;7375;46.072;14.470;2023-04-09T06:36:07;20.00;51.30
14577;DHT22;7375;46.072;14.470;2023-04-09T06:38:35;20.00;51.40
14577;DHT22;7375;46.072;14.470;2023-04-09T06:41:01;20.00;51.40
14577;DHT22;7375;46.072;14.470;2023-04-09T06:43:31;20.00;51.40
14577;DHT22;7375;46.072;14.470;2023-04-09T06:45:57;20.00;51.40
14577;DHT22;7375;46.072;14.470;2023-04-09T06:48:24;20.00;51.40
14577;DHT22;7375;46.072;14.470;2023-04-09T06:50:51;20.00;51.30
14577;DHT22;7375;46.072;14.470;2023-04-09T06:53:17;20.00;51.30
14577;DHT22;7375;46.072;14.470;2023-04-09T06:55:45;20.00;51.30
14577;DHT22;7375;46.072;14.470;2023-04-09T06:58:12;20.00;51.30
14577;DHT22;7375;46.072;14.470;2023-04-09T07:00:39;20.00;51.30
14577;DHT22;7375;46.072;14.470;2023-04-09T07:03:06;20.00;51.20
14577;DHT22;7375;46.072;14.470;2023-04-09T07:05:33;20.00;51.30
14577;DHT22;7375;46.072;14.470;2023-04-09T07:08:00;20.00;51.30
14577;DHT22;7375;46.072;14.470;2023-04-09T07:10:28;20.00;51.20
14577;DHT22;7375;46.072;14.470;2023-04-09T07:12:56;20.00;51.20
14577;DHT22;7375;46.072;14.470;2023-04-09T07:15:23;20.10;51.30
14577;DHT22;7375;46.072;14.470;2023-04-09T07:17:49;20.10;51.20
14577;DHT22;7375;46.072;14.470;2023-04-09T07:20:16;20.10;51.20
14577;DHT22;7375;46.072;14.470;2023-04-09T07:22:43;20.10;51.10
14577;DHT22;7375;46.072;14.470;2023-04-09T07:25:09;20.10;51.20
14577;DHT22;7375;46.072;14.470;2023-04-09T07:27:36;20.10;51.10
14577;DHT22;7375;46.072;14.470;2023-04-09T07:30:05;20.10;51.10
14577;DHT22;7375;46.072;14.470;2023-04-09T07:32:32;20.10;51.10
14577;DHT22;7375;46.072;14.470;2023-04-09T07:34:58;20.10;51.10
14577;DHT22;7375;46.072;14.470;2023-04-09T07:37:26;20.10;51.00
14577;DHT22;7375;46.072;14.470;2023-04-09T07:39:53;20.10;51.00
14577;DHT22;7375;46.072;14.470;2023-04-09T07:42:20;20.20;51.00
14577;DHT22;7375;46.072;14.470;2023-04-09T07:44:46;20.20;50.90
14577;DHT22;7375;46.072;14.470;2023-04-09T07:47:15;20.20;50.90
14577;DHT22;7375;46.072;14.470;2023-04-09T07:49:41;20.20;50.90
14577;DHT22;7375;46.072;14.470;2023-04-09T07:52:08;20.20;50.70
14577;DHT22;7375;46.072;14.470;2023-04-09T07:54:35;20.20;50.70
14577;DHT22;7375;46.072;14.470;2023-04-09T07:57:01;20.20;50.70
14577;DHT22;7375;46.072;14.470;2023-04-09T07:59:28;20.20;50.70
14577;DHT22;7375;46.072;14.470;2023-04-09T08:01:55;20.20;50.70
14577;DHT22;7375;46.072;14.470;2023-04-09T08:04:24;20.20;50.60
14577;DHT22;7375;46.072;14.470;2023-04-09T08:06:51;20.20;50.60
14577;DHT22;7375;46.072;14.470;2023-04-09T08:09:18;20.30;50.60
14577;DHT22;7375;46.072;14.470;2023-04-09T08:11:45;20.30;50.50
14577;DHT22;7375;46.072;14.470;2023-04-09T08:14:12;20.30;50.50
14577;DHT22;7375;46.072;14.470;2023-04-09T08:16:39;20.30;50.50
14577;DHT22;7375;46.072;14.470;2023-04-09T08:19:06;20.30;50.50
14577;DHT22;7375;46.072;14.470;2023-04-09T08:21:35;20.30;50.40
14577;DHT22;7375;46.072;14.470;2023-04-09T08:24:02;20.30;50.40
14577;DHT22;7375;46.072;14.470;2023-04-09T08:26:30;20.30;50.40
14577;DHT22;7375;46.072;14.470;2023-04-09T08:28:56;20.30;50.40
14577;DHT22;7375;46.072;14.470;2023-04-09T08:31:23;20.30;50.50
14577;DHT22;7375;46.072;14.470;2023-04-09T08:33:50;20.30;50.40
14577;DHT22;7375;46.072;14.470;2023-04-09T08:36:17;20.30;50.30
14577;DHT22;7375;46.072;14.470;2023-04-09T08:38:46;20.30;50.30
14577;DHT22;7375;46.072;14.470;2023-04-09T08:41:16;20.40;50.50
14577;DHT22;7375;46.072;14.470;2023-04-09T08:43:43;20.30;50.50
14577;DHT22;7375;46.072;14.470;2023-04-09T08:46:11;20.40;50.60
14577;DHT22;7375;46.072;14.470;2023-04-09T08:48:40;20.40;50.60
14577;DHT22;7375;46.072;14.470;2023-04-09T08:51:08;20.40;50.50
14577;DHT22;7375;46.072;14.470;2023-04-09T08:53:37;20.40;50.30
14577;DHT22;7375;46.072;14.470;2023-04-09T08:56:06;20.40;50.30
14577;DHT22;7375;46.072;14.470;2023-04-09T08:58:33;20.40;50.20
14577;DHT22;7375;46.072;14.470;2023-04-09T09:01:00;20.40;50.10
14577;DHT22;7375;46.072;14.470;2023-04-09T09:03:27;20.40;50.00
14577;DHT22;7375;46.072;14.470;2023-04-09T09:05:53;20.40;50.00
14577;DHT22;7375;46.072;14.470;2023-04-09T09:08:21;20.40;50.00
14577;DHT22;7375;46.072;14.470;2023-04-09T09:10:48;20.40;50.00
14577;DHT22;7375;46.072;14.470;2023-04-09T09:13:17;20.50;50.00
14577;DHT22;7375;46.072;14.470;2023-04-09T09:15:44;20.50;50.00
14577;DHT22;7375;46.072;14.470;2023-04-09T09:18:14;20.50;50.00
14577;DHT22;7375;46.072;14.470;2023-04-09T09:20:41;20.50;50.00
14577;DHT22;7375;46.072;14.470;2023-04-09T09:23:08;20.50;49.90
14577;DHT22;7375;46.072;14.470;2023-04-09T09:25:36;20.50;50.00
14577;DHT22;7375;46.072;14.470;2023-04-09T09:28:06;20.50;50.00
14577;DHT22;7375;46.072;14.470;2023-04-09T09:30:35;20.50;50.00
14577;DHT22;7375;46.072;14.470;2023-04-09T09:33:04;20.50;50.30
14577;DHT22;7375;46.072;14.470;2023-04-09T09:35:40;20.50;50.40
14577;DHT22;7375;46.072;14.470;2023-04-09T09:38:12;20.50;50.30
14577;DHT22;7375;46.072;14.470;2023-04-09T09:40:40;20.50;50.60
14577;DHT22;7375;46.072;14.470;2023-04-09T09:43:07;20.60;50.70
14577;DHT22;7375;46.072;14.470;2023-04-09T09:45:35;20.60;50.70
14577;DHT22;7375;46.072;14.470;2023-04-09T09:48:03;20.60;50.80
14577;DHT22;7375;46.072;14.470;2023-04-09T09:50:30;20.60;50.80
14577;DHT22;7375;46.072;14.470;2023-04-09T09:53:00;20.60;50.60
14577;DHT22;7375;46.072;14.470;2023-04-09T09:55:28;20.60;50.50
14577;DHT22;7375;46.072;14.470;2023-04-09T09:57:56;20.60;49.30
14577;DHT22;7375;46.072;14.470;2023-04-09T10:00:24;20.60;50.50
14577;DHT22;7375;46.072;14.470;2023-04-09T10:02:54;20.60;50.80
14577;DHT22;7375;46.072;14.470;2023-04-09T10:05:23;20.60;51.20
14577;DHT22;7375;46.072;14.470;2023-04-09T10:07:52;20.70;51.10
14577;DHT22;7375;46.072;14.470;2023-04-09T10:10:20;20.70;50.90
14577;DHT22;7375;46.072;14.470;2023-04-09T10:12:47;20.70;50.70
14577;DHT22;7375;46.072;14.470;2023-04-09T10:15:14;20.70;50.40
14577;DHT22;7375;46.072;14.470;2023-04-09T10:17:40;20.70;50.10
14577;DHT22;7375;46.072;14.470;2023-04-09T10:20:11;20.70;50.00
14577;DHT22;7375;46.072;14.470;2023-04-09T10:22:39;20.70;50.00
14577;DHT22;7375;46.072;14.470;2023-04-09T10:25:08;20.70;50.00
14577;DHT22;7375;46.072;14.470;2023-04-09T10:27:35;20.70;49.90
14577;DHT22;7375;46.072;14.470;2023-04-09T10:30:02;20.70;49.90
14577;DHT22;7375;46.072;14.470;2023-04-09T10:32:33;20.70;49.90
14577;DHT22;7375;46.072;14.470;2023-04-09T10:35:01;20.70;49.70
14577;DHT22;7375;46.072;14.470;2023-04-09T10:37:29;20.70;49.70
14577;DHT22;7375;46.072;14.470;2023-04-09T10:39:56;20.70;49.80
14577;DHT22;7375;46.072;14.470;2023-04-09T10:42:23;20.70;49.50
14577;DHT22;7375;46.072;14.470;2023-04-09T10:45:05;20.70;49.60
14577;DHT22;7375;46.072;14.470;2023-04-09T10:47:32;20.70;49.50
14577;DHT22;7375;46.072;14.470;2023-04-09T10:50:12;20.70;49.50
14577;DHT22;7375;46.072;14.470;2023-04-09T10:52:41;20.70;49.50
14577;DHT22;7375;46.072;14.470;2023-04-09T10:55:08;20.70;49.50
14577;DHT22;7375;46.072;14.470;2023-04-09T10:57:35;20.70;49.50
14577;DHT22;7375;46.072;14.470;2023-04-09T11:00:02;20.70;49.50
14577;DHT22;7375;46.072;14.470;2023-04-09T11:02:44;20.70;49.40
14577;DHT22;7375;46.072;14.470;2023-04-09T11:05:17;20.70;49.50
14577;DHT22;7375;46.072;14.470;2023-04-09T11:07:46;20.70;49.60
14577;DHT22;7375;46.072;14.470;2023-04-09T11:10:13;20.70;49.50
14577;DHT22;7375;46.072;14.470;2023-04-09T11:12:40;20.70;49.60
14577;DHT22;7375;46.072;14.470;2023-04-09T11:15:14;20.70;49.70
14577;DHT22;7375;46.072;14.470;2023-04-09T11:17:41;20.70;49.70
14577;DHT22;7375;46.072;14.470;2023-04-09T11:20:15;20.80;49.90
14577;DHT22;7375;46.072;14.470;2023-04-09T11:22:42;20.80;49.80
14577;DHT22;7375;46.072;14.470;2023-04-09T11:25:10;20.80;49.80
14577;DHT22;7375;46.072;14.470;2023-04-09T11:27:43;20.80;49.80
14577;DHT22;7375;46.072;14.470;2023-04-09T11:30:11;20.80;49.70
14577;DHT22;7375;46.072;14.470;2023-04-09T11:32:38;20.80;49.60
14577;DHT22;7375;46.072;14.470;2023-04-09T11:35:09;20.80;49.60
14577;DHT22;7375;46.072;14.470;2023-04-09T11:37:37;20.80;49.70
14577;DHT22;7375;46.072;14.470;2023-04-09T11:40:04;20.90;49.60
14577;DHT22;7375;46.072;14.470;2023-04-09T11:42:33;20.90;49.60
14577;DHT22;7375;46.072;14.470;2023-04-09T11:45:00;20.80;49.50
14577;DHT22;7375;46.072;14.470;2023-04-09T11:47:27;20.90;49.60
14577;DHT22;7375;46.072;14.470;2023-04-09T11:49:54;20.90;49.60
14577;DHT22;7375;46.072;14.470;2023-04-09T11:52:21;20.90;49.50
14577;DHT22;7375;46.072;14.470;2023-04-09T11:54:48;20.90;49.60
14577;DHT22;7375;46.072;14.470;2023-04-09T11:57:14;20.90;49.60
14577;DHT22;7375;46.072;14.470;2023-04-09T11:59:42;20.90;49.60
14577;DHT22;7375;46.072;14.470;2023-04-09T12:02:10;20.90;49.50
14577;DHT22;7375;46.072;14.470;2023-04-09T12:04:37;20.90;49.50
14577;DHT22;7375;46.072;14.470;2023-04-09T12:07:14;20.90;49.50
14577;DHT22;7375;46.072;14.470;2023-04-09T12:09:45;20.90;49.50
14577;DHT22;7375;46.072;14.470;2023-04-09T12:12:16;20.90;49.50
14577;DHT22;7375;46.072;14.470;2023-04-09T12:14:45;20.90;49.50
14577;DHT22;7375;46.072;14.470;2023-04-09T12:17:12;20.90;49.40
14577;DHT22;7375;46.072;14.470;2023-04-09T12:19:39;21.00;49.40
14577;DHT22;7375;46.072;14.470;2023-04-09T12:22:06;20.90;49.40
14577;DHT22;7375;46.072;14.470;2023-04-09T12:24:33;21.00;49.40
14577;DHT22;7375;46.072;14.470;2023-04-09T12:26:59;21.00;49.50
14577;DHT22;7375;46.072;14.470;2023-04-09T12:29:26;20.90;49.30
14577;DHT22;7375;46.072;14.470;2023-04-09T12:31:57;20.90;49.20
14577;DHT22;7375;46.072;14.470;2023-04-09T12:34:24;21.00;49.30
14577;DHT22;7375;46.072;14.470;2023-04-09T12:36:51;21.00;49.20
14577;DHT22;7375;46.072;14.470;2023-04-09T12:39:18;21.00;49.30
14577;DHT22;7375;46.072;14.470;2023-04-09T12:41:45;21.00;49.30
14577;DHT22;7375;46.072;14.470;2023-04-09T12:44:12;21.00;49.10
14577;DHT22;7375;46.072;14.470;2023-04-09T12:46:38;21.00;49.10
14577;DHT22;7375;46.072;14.470;2023-04-09T12:49:07;21.00;49.10
14577;DHT22;7375;46.072;14.470;2023-04-09T12:51:33;21.00;49.10
14577;DHT22;7375;46.072;14.470;2023-04-09T12:54:00;21.00;49.00
14577;DHT22;7375;46.072;14.470;2023-04-09T12:56:28;21.00;48.90
14577;DHT22;7375;46.072;14.470;2023-04-09T12:58:55;21.00;49.10
14577;DHT22;7375;46.072;14.470;2023-04-09T13:01:22;21.00;49.00
14577;DHT22;7375;46.072;14.470;2023-04-09T13:03:49;21.00;48.90
14577;DHT22;7375;46.072;14.470;2023-04-09T13:06:17;21.00;48.90
14577;DHT22;7375;46.072;14.470;2023-04-09T13:08:45;21.00;49.00
14577;DHT22;7375;46.072;14.470;2023-04-09T13:11:11;21.00;48.80
14577;DHT22;7375;46.072;14.470;2023-04-09T13:13:45;21.00;48.90
14577;DHT22;7375;46.072;14.470;2023-04-09T13:16:12;21.00;48.80
14577;DHT22;7375;46.072;14.470;2023-04-09T13:18:39;21.00;48.90
14577;DHT22;7375;46.072;14.470;2023-04-09T13:21:06;21.00;48.90
14577;DHT22;7375;46.072;14.470;2023-04-09T13:23:34;21.00;48.90
14577;DHT22;7375;46.072;14.470;2023-04-09T13:26:00;21.00;48.70
14577;DHT22;7375;46.072;14.470;2023-04-09T13:28:27;21.00;48.90
14577;DHT22;7375;46.072;14.470;2023-04-09T13:30:54;21.00;48.80
14577;DHT22;7375;46.072;14.470;2023-04-09T13:33:21;21.00;48.90
14577;DHT22;7375;46.072;14.470;2023-04-09T13:35:48;21.00;48.80
14577;DHT22;7375;46.072;14.470;2023-04-09T13:38:15;21.00;48.80
14577;DHT22;7375;46.072;14.470;2023-04-09T13:40:43;21.00;48.80
14577;DHT22;7375;46.072;14.470;2023-04-09T13:43:10;21.00;48.80
14577;DHT22;7375;46.072;14.470;2023-04-09T13:45:37;21.00;48.80
14577;DHT22;7375;46.072;14.470;2023-04-09T13:48:04;21.00;48.80
14577;DHT22;7375;46.072;14.470;2023-04-09T13:50:30;21.00;48.60
14577;DHT22;7375;46.072;14.470;2023-04-09T13:52:57;21.00;48.70
14577;DHT22;7375;46.072;14.470;2023-04-09T13:55:27;21.00;48.60
14577;DHT22;7375;46.072;14.470;2023-04-09T13:57:56;21.00;48.60
14577;DHT22;7375;46.072;14.470;2023-04-09T14:00:23;21.00;48.70
14577;DHT22;7375;46.072;14.470;2023-04-09T14:02:50;20.90;48.60
14577;DHT22;7375;46.072;14.470;2023-04-09T14:05:16;20.90;48.50
14577;DHT22;7375;46.072;14.470;2023-04-09T14:07:43;21.00;48.50
14577;DHT22;7375;46.072;14.470;2023-04-09T14:10:10;20.90;48.50
14577;DHT22;7375;46.072;14.470;2023-04-09T14:12:36;21.00;48.60
14577;DHT22;7375;46.072;14.470;2023-04-09T14:15:05;21.00;48.60
14577;DHT22;7375;46.072;14.470;2023-04-09T14:17:32;21.00;48.60
14577;DHT22;7375;46.072;14.470;2023-04-09T14:19:59;21.00;48.50
14577;DHT22;7375;46.072;14.470;2023-04-09T14:22:28;20.90;48.40
14577;DHT22;7375;46.072;14.470;2023-04-09T14:24:55;21.00;48.60
14577;DHT22;7375;46.072;14.470;2023-04-09T14:27:22;20.90;48.50
14577;DHT22;7375;46.072;14.470;2023-04-09T14:29:49;20.90;48.50
14577;DHT22;7375;46.072;14.470;2023-04-09T14:32:17;20.90;48.50
14577;DHT22;7375;46.072;14.470;2023-04-09T14:34:44;20.90;48.60
14577;DHT22;7375;46.072;14.470;2023-04-09T14:37:11;20.90;48.50
14577;DHT22;7375;46.072;14.470;2023-04-09T14:39:37;20.90;48.50
14577;DHT22;7375;46.072;14.470;2023-04-09T14:42:04;20.90;48.40
14577;DHT22;7375;46.072;14.470;2023-04-09T14:44:31;20.90;48.40
14577;DHT22;7375;46.072;14.470;2023-04-09T14:46:58;20.90;48.50
14577;DHT22;7375;46.072;14.470;2023-04-09T14:49:26;20.90;48.50
14577;DHT22;7375;46.072;14.470;2023-04-09T14:51:53;20.90;48.50
14577;DHT22;7375;46.072;14.470;2023-04-09T14:54:20;20.90;48.50
14577;DHT22;7375;46.072;14.470;2023-04-09T14:56:47;20.90;48.40
14577;DHT22;7375;46.072;14.470;2023-04-09T14:59:14;20.90;48.50
14577;DHT22;7375;46.072;14.470;2023-04-09T15:01:40;20.80;48.30
14577;DHT22;7375;46.072;14.470;2023-04-09T15:04:07;20.80;48.40
14577;DHT22;7375;46.072;14.470;2023-04-09T15:06:35;20.80;48.50
14577;DHT22;7375;46.072;14.470;2023-04-09T15:09:02;20.80;48.40
14577;DHT22;7375;46.072;14.470;2023-04-09T15:11:29;20.80;48.50
14577;DHT22;7375;46.072;14.470;2023-04-09T15:13:56;20.80;48.50
14577;DHT22;7375;46.072;14.470;2023-04-09T15:16:23;20.80;48.50
14577;DHT22;7375;46.072;14.470;2023-04-09T15:18:50;20.80;48.40
14577;DHT22;7375;46.072;14.470;2023-04-09T15:21:16;20.80;48.40
14577;DHT22;7375;46.072;14.470;2023-04-09T15:23:45;20.80;48.40
14577;DHT22;7375;46.072;14.470;2023-04-09T15:26:11;20.80;48.50
14577;DHT22;7375;46.072;14.470;2023-04-09T15:28:38;20.80;48.50
14577;DHT22;7375;46.072;14.470;2023-04-09T15:31:05;20.80;48.50